Time;durP1;ratioP1;P1;durP2;ratioP2;P2;SDS_P1;SDS_P2;PMS_P1;PMS_P2;Temp;Humidity;BMP_temperature;BMP_pressure;BME280_temperature;BME280_humidity;BME280_pressure;Samples;Min_cycle;Max_cycle;Signal;HPM_P1;HPM_P2
2022/08/22 00:00:12;;;;;;;3.07;0.97;;;17.30;99.90;;;;;;5066041;28;20480;-93
2022/08/22 00:03:01;;;;;;;3.47;1.23;;;17.20;99.90;;;;;;5067395;28;20425;-95
2022/08/22 00:05:55;;;;;;;3.20;0.70;;;17.10;99.90;;;;;;5066939;28;20465;-94
2022/08/22 00:08:30;;;;;;;1.17;0.53;;;17.00;99.90;;;;;;5055822;28;20421;-94
2022/08/22 00:11:11;;;;;;;1.60;0.80;;;16.90;99.90;;;;;;5058160;28;20418;-94
2022/08/22 00:14:07;;;;;;;1.83;0.53;;;16.90;99.90;;;;;;5058212;28;20475;-92
2022/08/22 00:16:59;;;;;;;2.60;0.67;;;16.80;99.90;;;;;;5054676;28;20421;-93
2022/08/22 00:19:30;;;;;;;4.70;1.33;;;16.80;99.90;;;;;;5054488;28;20419;-93
2022/08/22 00:22:02;;;;;;;1.80;0.73;;;16.80;99.90;;;;;;5054694;28;20995;-94
2022/08/22 00:24:48;;;;;;;1.63;0.53;;;16.80;99.90;;;;;;5054801;28;20516;-92
2022/08/22 00:27:22;;;;;;;2.50;0.60;;;16.90;99.90;;;;;;5054489;28;20438;-92
2022/08/22 00:30:04;;;;;;;1.50;0.53;;;17.00;99.90;;;;;;5054245;28;20416;-92
2022/08/22 00:32:42;;;;;;;1.27;0.60;;;17.00;99.90;;;;;;5054514;28;20945;-94
2022/08/22 00:35:23;;;;;;;2.10;0.50;;;17.10;99.90;;;;;;5053225;28;20468;-92
2022/08/22 00:38:05;;;;;;;3.70;0.80;;;17.10;99.90;;;;;;5054055;28;20433;-94
2022/08/22 00:40:52;;;;;;;2.10;0.70;;;17.20;99.90;;;;;;5054282;28;20784;-93
2022/08/22 00:43:46;;;;;;;1.93;0.60;;;17.30;99.90;;;;;;5054354;28;20403;-94
2022/08/22 00:46:43;;;;;;;1.60;0.67;;;17.30;99.90;;;;;;5053965;28;21051;-92
2022/08/22 00:49:30;;;;;;;3.93;0.93;;;17.40;99.90;;;;;;5053662;28;20426;-91
2022/08/22 00:52:21;;;;;;;1.83;0.57;;;17.50;99.90;;;;;;5053693;28;20486;-91
2022/08/22 00:55:26;;;;;;;3.17;1.13;;;17.40;99.90;;;;;;5053943;28;20455;-91
2022/08/22 00:58:14;;;;;;;3.30;0.70;;;17.50;99.90;;;;;;5034292;28;20441;-92
2022/08/22 01:00:52;;;;;;;1.13;0.50;;;17.50;99.90;;;;;;5054087;28;20427;-94
2022/08/22 01:03:41;;;;;;;2.50;0.40;;;17.50;99.90;;;;;;5053649;28;20422;-92
2022/08/22 01:06:35;;;;;;;2.80;0.67;;;17.50;99.90;;;;;;5053981;28;20473;-93
2022/08/22 01:09:18;;;;;;;2.97;0.93;;;17.50;99.90;;;;;;5055103;28;20405;-93
2022/08/22 01:12:10;;;;;;;9.53;1.30;;;17.50;99.90;;;;;;5060761;28;20438;-94
2022/08/22 01:14:52;;;;;;;2.23;1.03;;;17.50;99.90;;;;;;5057794;28;20439;-94
2022/08/22 01:18:01;;;;;;;3.10;0.60;;;17.50;99.90;;;;;;5056669;28;20433;-94
2022/08/22 01:21:09;;;;;;;1.90;0.77;;;17.50;99.90;;;;;;5057368;28;20488;-94
2022/08/22 01:23:48;;;;;;;3.50;0.60;;;17.40;99.90;;;;;;5058316;28;20414;-93
2022/08/22 01:26:39;;;;;;;2.43;1.00;;;17.40;99.90;;;;;;5052548;28;20481;-91
2022/08/22 01:29:28;;;;;;;1.27;0.63;;;17.40;99.90;;;;;;5053414;28;20468;-88
2022/08/22 01:32:46;;;;;;;3.00;0.83;;;17.40;99.90;;;;;;5053465;28;20425;-92
2022/08/22 01:35:24;;;;;;;1.33;0.77;;;17.40;99.90;;;;;;5052837;28;20471;-91
2022/08/22 01:38:03;;;;;;;2.60;0.47;;;17.40;99.90;;;;;;5053360;28;20519;-89
2022/08/22 01:40:52;;;;;;;4.50;0.77;;;17.40;99.90;;;;;;5053269;28;20428;-91
2022/08/22 01:43:48;;;;;;;2.00;1.23;;;17.50;99.90;;;;;;5052565;28;20432;-90
2022/08/22 01:46:44;;;;;;;1.80;0.57;;;17.50;99.90;;;;;;5052256;28;20464;-89
2022/08/22 01:49:33;;;;;;;5.60;1.47;;;17.50;99.90;;;;;;5056825;28;20475;-88
2022/08/22 01:52:17;;;;;;;1.17;0.47;;;17.50;99.90;;;;;;5057563;28;20494;-89
2022/08/22 01:54:53;;;;;;;4.77;0.73;;;17.40;99.90;;;;;;5058458;28;20565;-92
2022/08/22 01:57:20;;;;;;;3.20;0.90;;;17.40;99.90;;;;;;5059118;28;20409;-91
2022/08/22 01:59:51;;;;;;;1.87;0.70;;;17.40;99.90;;;;;;5057349;28;20421;-91
2022/08/22 02:02:38;;;;;;;0.90;0.47;;;17.40;99.90;;;;;;5056857;28;20545;-89
2022/08/22 02:05:17;;;;;;;1.70;0.33;;;17.40;99.90;;;;;;5056315;28;20461;-89
2022/08/22 02:07:59;;;;;;;2.90;0.50;;;17.40;99.90;;;;;;5057463;28;20849;-91
2022/08/22 02:11:03;;;;;;;1.53;0.80;;;17.40;99.90;;;;;;5057907;28;20425;-89
2022/08/22 02:13:34;;;;;;;3.43;1.53;;;17.40;99.90;;;;;;5057025;28;20416;-91
2022/08/22 02:16:30;;;;;;;1.13;0.70;;;17.40;99.90;;;;;;5056633;28;20492;-91
2022/08/22 02:19:13;;;;;;;2.07;0.93;;;17.40;99.90;;;;;;5056772;28;20938;-90
2022/08/22 02:21:45;;;;;;;2.90;0.90;;;17.40;99.90;;;;;;5058319;28;20412;-91
2022/08/22 02:24:26;;;;;;;1.20;0.30;;;17.40;99.90;;;;;;5057133;28;20423;-91
2022/08/22 02:27:22;;;;;;;0.80;0.30;;;17.40;99.90;;;;;;5057023;28;20455;-92
2022/08/22 02:30:07;;;;;;;2.17;0.70;;;17.40;99.90;;;;;;5057382;28;20451;-91
2022/08/22 02:33:01;;;;;;;1.33;0.90;;;17.40;99.90;;;;;;5057497;28;20437;-91
2022/08/22 02:35:42;;;;;;;1.17;0.67;;;17.40;99.90;;;;;;5057245;28;20497;-92
2022/08/22 02:38:40;;;;;;;3.90;0.87;;;17.40;99.90;;;;;;5057409;28;20461;-93
2022/08/22 02:41:12;;;;;;;1.87;0.87;;;17.30;99.90;;;;;;5057697;28;20579;-94
2022/08/22 02:43:53;;;;;;;2.07;1.03;;;17.40;99.90;;;;;;5057703;28;20831;-89
2022/08/22 02:46:40;;;;;;;1.70;0.50;;;17.40;99.90;;;;;;5057165;28;20514;-89
2022/08/22 02:49:30;;;;;;;1.87;0.30;;;17.40;99.90;;;;;;5054897;28;20415;-88
2022/08/22 02:52:05;;;;;;;2.13;0.60;;;17.40;99.90;;;;;;5073228;28;20426;-92
2022/08/22 02:54:35;;;;;;;3.47;1.50;;;17.40;99.90;;;;;;5059359;28;20408;-92
2022/08/22 02:57:26;;;;;;;2.27;0.37;;;17.30;99.90;;;;;;5057624;28;20940;-91
2022/08/22 03:00:25;;;;;;;2.20;0.70;;;17.30;99.90;;;;;;5057407;28;20500;-91
2022/08/22 03:02:51;;;;;;;2.30;0.80;;;17.30;99.90;;;;;;5057348;28;20492;-92
2022/08/22 03:05:25;;;;;;;2.47;0.50;;;17.30;99.90;;;;;;5057685;28;20523;-91
2022/08/22 03:08:23;;;;;;;3.37;0.50;;;17.40;99.90;;;;;;5057295;28;20649;-91
2022/08/22 03:11:18;;;;;;;0.80;0.50;;;17.30;99.90;;;;;;5055901;28;20808;-93
2022/08/22 03:14:06;;;;;;;3.07;0.30;;;17.30;99.90;;;;;;5052940;28;20425;-91
2022/08/22 03:16:37;;;;;;;3.07;0.90;;;17.30;99.90;;;;;;5057409;28;20428;-91
2022/08/22 03:19:03;;;;;;;2.33;0.53;;;17.30;99.90;;;;;;5056823;28;20551;-91
2022/08/22 03:21:37;;;;;;;2.00;0.50;;;17.30;99.90;;;;;;5057862;28;20421;-92
2022/08/22 03:24:23;;;;;;;2.30;0.67;;;17.30;99.90;;;;;;5057529;28;20171;-92
2022/08/22 03:26:56;;;;;;;1.40;0.50;;;17.30;99.90;;;;;;5057762;28;20476;-91
2022/08/22 03:29:32;;;;;;;1.23;0.20;;;17.30;99.90;;;;;;5056982;28;20421;-93
2022/08/22 03:32:18;;;;;;;1.90;0.53;;;17.30;99.90;;;;;;5056995;28;20413;-93
2022/08/22 03:35:00;;;;;;;2.87;0.70;;;17.30;99.90;;;;;;5056829;28;20463;-94
2022/08/22 03:37:38;;;;;;;1.00;0.50;;;17.30;99.90;;;;;;5057280;28;20799;-94
2022/08/22 03:40:21;;;;;;;1.87;0.63;;;17.30;99.90;;;;;;5057398;28;20412;-93
2022/08/22 03:43:10;;;;;;;1.83;0.93;;;17.40;99.90;;;;;;5057753;28;20429;-93
2022/08/22 03:46:06;;;;;;;2.93;0.53;;;17.40;99.90;;;;;;5058097;28;20468;-95
2022/08/22 03:49:03;;;;;;;2.50;0.40;;;17.40;99.90;;;;;;5057016;28;20437;-93
2022/08/22 03:51:44;;;;;;;1.10;0.30;;;17.40;99.90;;;;;;5056003;28;20425;-92
2022/08/22 03:54:45;;;;;;;1.40;0.30;;;17.30;99.90;;;;;;5056862;28;20415;-92
2022/08/22 03:58:07;;;;;;;2.70;0.37;;;17.30;99.90;;;;;;5056755;28;20916;-94
2022/08/22 04:01:10;;;;;;;2.20;0.40;;;17.30;99.90;;;;;;5036566;28;20423;-92
2022/08/22 04:03:39;;;;;;;2.83;0.60;;;17.30;99.90;;;;;;5038637;28;20425;-93
2022/08/22 04:06:43;;;;;;;1.50;0.87;;;17.30;99.90;;;;;;5064282;28;20827;-93
2022/08/22 04:09:25;;;;;;;1.87;0.70;;;17.30;99.90;;;;;;5059870;28;20422;-92
2022/08/22 04:12:16;;;;;;;1.07;0.33;;;17.20;99.90;;;;;;5058208;28;20430;-93
2022/08/22 04:14:58;;;;;;;3.50;1.40;;;17.30;99.90;;;;;;5057433;28;20510;-93
2022/08/22 04:17:43;;;;;;;1.40;0.93;;;17.30;99.90;;;;;;5057590;28;20485;-92
2022/08/22 04:20:34;;;;;;;3.23;0.90;;;17.30;99.90;;;;;;5060025;28;20419;-94
2022/08/22 04:23:33;;;;;;;2.87;0.50;;;17.20;99.90;;;;;;5059174;28;20486;-93
2022/08/22 04:26:28;;;;;;;1.80;0.73;;;17.20;99.90;;;;;;5057464;28;20523;-92
2022/08/22 04:29:04;;;;;;;4.50;0.83;;;17.20;99.90;;;;;;5052308;28;20426;-92
2022/08/22 04:31:49;;;;;;;1.57;0.20;;;17.20;99.90;;;;;;5138301;27;20572;-92
2022/08/22 04:34:34;;;;;;;2.20;0.57;;;17.20;99.90;;;;;;5137572;27;20438;-92
2022/08/22 04:37:08;;;;;;;1.50;0.50;;;17.30;99.90;;;;;;5137447;28;20423;-91
2022/08/22 04:39:45;;;;;;;0.93;0.70;;;17.20;99.90;;;;;;5120242;28;20475;-93
2022/08/22 04:42:16;;;;;;;2.50;0.87;;;17.20;99.90;;;;;;5115058;28;20495;-92
2022/08/22 04:44:50;;;;;;;3.07;0.80;;;17.20;99.90;;;;;;5131734;28;20416;-93
2022/08/22 04:47:22;;;;;;;1.37;0.50;;;17.20;99.90;;;;;;5114694;28;20930;-92
2022/08/22 04:50:04;;;;;;;1.80;0.97;;;17.20;99.90;;;;;;5114302;28;20449;-93
2022/08/22 04:52:50;;;;;;;3.90;0.63;;;17.30;99.90;;;;;;5115418;28;20410;-92
2022/08/22 04:55:31;;;;;;;3.90;0.87;;;17.30;99.90;;;;;;5131916;28;20416;-91
2022/08/22 04:58:18;;;;;;;3.67;0.73;;;17.30;99.90;;;;;;5131843;28;20435;-93
2022/08/22 05:01:05;;;;;;;1.30;0.60;;;17.30;99.90;;;;;;5131636;28;20422;-94
2022/08/22 05:03:35;;;;;;;1.80;0.70;;;17.30;99.90;;;;;;5132093;28;20429;-93
2022/08/22 05:06:04;;;;;;;1.50;0.77;;;17.40;99.90;;;;;;5115555;28;20411;-93
2022/08/22 05:08:34;;;;;;;1.17;0.53;;;17.40;99.90;;;;;;5119112;28;20434;-93
2022/08/22 05:11:04;;;;;;;2.10;0.40;;;17.40;99.90;;;;;;5114699;28;20998;-93
2022/08/22 05:13:35;;;;;;;4.63;0.87;;;17.40;99.90;;;;;;5115283;28;20425;-93
2022/08/22 05:16:05;;;;;;;1.80;0.83;;;17.40;99.90;;;;;;5115271;28;20411;-95
2022/08/22 05:18:45;;;;;;;1.90;0.83;;;17.50;99.90;;;;;;5118805;28;20415;-94
2022/08/22 05:21:13;;;;;;;1.67;0.73;;;17.50;99.90;;;;;;5114584;28;20455;-93
2022/08/22 05:23:47;;;;;;;1.53;0.50;;;17.50;99.90;;;;;;5114297;28;20887;-94
2022/08/22 05:26:15;;;;;;;3.13;0.70;;;17.60;99.90;;;;;;5114561;28;20410;-93
2022/08/22 05:28:45;;;;;;;3.43;0.47;;;17.60;99.90;;;;;;5114382;28;20410;-94
2022/08/22 05:31:15;;;;;;;2.50;0.73;;;17.70;99.90;;;;;;5116740;28;20484;-94
2022/08/22 05:33:45;;;;;;;1.80;0.40;;;17.80;99.90;;;;;;5118689;28;20449;-93
2022/08/22 05:36:47;;;;;;;2.20;0.70;;;17.90;99.90;;;;;;5117098;28;20468;-94
2022/08/22 05:39:17;;;;;;;3.07;0.93;;;18.00;99.90;;;;;;5071832;28;20422;-95
2022/08/22 05:41:43;;;;;;;0.87;0.87;;;18.00;99.90;;;;;;5107470;28;20412;-94
2022/08/22 05:44:29;;;;;;;0.80;0.50;;;18.10;99.90;;;;;;5102396;28;20935;-93
2022/08/22 05:47:03;;;;;;;2.00;0.77;;;18.30;99.90;;;;;;5100796;28;20400;-93
2022/08/22 05:49:37;;;;;;;3.50;0.70;;;18.30;99.90;;;;;;5101758;28;20416;-95
2022/08/22 05:52:29;;;;;;;2.53;1.37;;;18.80;99.90;;;;;;5100675;28;20484;-95
2022/08/22 05:55:20;;;;;;;4.27;0.67;;;19.30;99.90;;;;;;5107607;28;20427;-95
2022/08/22 05:58:06;;;;;;;2.03;0.70;;;19.10;99.90;;;;;;5103013;28;20434;-96
2022/08/22 06:00:38;;;;;;;2.17;0.60;;;19.00;99.90;;;;;;5101746;28;20469;-93
2022/08/22 06:03:13;;;;;;;4.23;0.90;;;18.90;99.90;;;;;;5101658;28;20416;-87
2022/08/22 06:05:42;;;;;;;1.80;0.87;;;19.00;99.90;;;;;;5098210;28;20407;-89
2022/08/22 06:08:38;;;;;;;4.43;0.80;;;19.00;99.90;;;;;;5116368;28;20469;-88
2022/08/22 06:11:43;;;;;;;2.17;0.50;;;19.60;99.90;;;;;;5097854;28;20609;-88
2022/08/22 06:14:41;;;;;;;1.30;0.50;;;21.40;1.00;;;;;;5095999;28;20414;-90
2022/08/22 06:17:15;;;;;;;1.47;0.83;;;22.90;99.90;;;;;;5115911;28;20914;-91
2022/08/22 06:19:49;;;;;;;2.50;0.47;;;23.50;1.00;;;;;;5116018;28;20831;-89
2022/08/22 06:22:30;;;;;;;2.40;0.80;;;22.80;99.90;;;;;;5097722;28;20420;-89
2022/08/22 06:25:05;;;;;;;2.30;0.70;;;23.10;1.00;;;;;;5115996;28;20848;-89
2022/08/22 06:27:32;;;;;;;4.73;0.83;;;24.40;63.80;;;;;;5097683;28;20411;-90
2022/08/22 06:30:01;;;;;;;3.17;0.30;;;24.90;1.00;;;;;;5097536;28;20485;-90
2022/08/22 06:32:30;;;;;;;1.57;0.43;;;23.50;1.00;;;;;;5097815;28;20435;-90
2022/08/22 06:35:02;;;;;;;3.30;0.83;;;21.80;99.90;;;;;;5097755;28;20428;-90
2022/08/22 06:37:36;;;;;;;1.27;0.30;;;20.80;1.00;;;;;;5097747;28;20413;-91
2022/08/22 06:40:05;;;;;;;1.90;0.77;;;20.30;99.90;;;;;;5115912;28;20420;-91
2022/08/22 06:42:36;;;;;;;4.50;0.67;;;20.10;99.90;;;;;;5097723;28;20482;-91
2022/08/22 06:45:09;;;;;;;2.30;1.50;;;20.20;99.90;;;;;;5115661;28;20505;-91
2022/08/22 06:47:55;;;;;;;6.37;1.10;;;20.20;99.90;;;;;;5115880;28;20936;-90
2022/08/22 06:50:32;;;;;;;1.07;0.40;;;20.00;99.90;;;;;;5115904;28;20942;-89
2022/08/22 06:52:58;;;;;;;2.40;0.50;;;19.90;99.90;;;;;;5114792;28;20763;-89
2022/08/22 06:55:26;;;;;;;2.27;0.77;;;20.00;99.90;;;;;;5115265;28;20507;-88
2022/08/22 06:57:56;;;;;;;2.00;1.03;;;20.00;99.90;;;;;;5097209;28;20319;-89
2022/08/22 07:00:22;;;;;;;1.60;0.60;;;20.10;99.90;;;;;;5115502;28;20417;-90
2022/08/22 07:02:55;;;;;;;3.43;0.70;;;20.40;99.90;;;;;;5115196;28;20405;-89
2022/08/22 07:05:26;;;;;;;3.90;1.10;;;21.00;99.90;;;;;;5115271;28;20483;-90
2022/08/22 07:07:53;;;;;;;2.70;0.60;;;21.10;99.90;;;;;;5097327;28;20556;-91
2022/08/22 07:10:21;;;;;;;1.50;0.50;;;23.50;1.00;;;;;;5115195;28;20459;-89
2022/08/22 07:12:50;;;;;;;5.00;0.77;;;23.20;99.90;;;;;;5115232;28;20503;-91
2022/08/22 07:15:35;;;;;;;4.97;1.07;;;22.90;1.00;;;;;;5115077;28;20419;-87
2022/08/22 07:18:07;;;;;;;3.53;0.90;;;24.80;99.90;;;;;;5114313;28;20408;-89
2022/08/22 07:20:37;;;;;;;1.10;0.47;;;26.80;99.90;;;;;;5114510;28;20797;-89
2022/08/22 07:23:06;;;;;;;1.70;1.27;;;27.80;99.90;;;;;;5096871;28;20510;-88
2022/08/22 07:26:03;;;;;;;2.60;0.83;;;28.30;99.90;;;;;;5115193;28;20402;-88
2022/08/22 07:28:34;;;;;;;2.10;0.50;;;29.00;99.90;;;;;;5114960;28;20417;-89
2022/08/22 07:31:21;;;;;;;1.50;0.73;;;28.80;99.90;;;;;;5114416;28;20518;-88
2022/08/22 07:33:51;;;;;;;1.03;0.30;;;29.50;99.90;;;;;;5095818;28;20417;-89
2022/08/22 07:36:47;;;;;;;3.30;0.60;;;29.50;88.20;;;;;;5114651;28;20409;-89
2022/08/22 07:39:35;;;;;;;1.50;0.30;;;29.90;63.40;;;;;;5095553;28;20413;-88
2022/08/22 07:42:13;;;;;;;3.57;1.00;;;29.60;60.50;;;;;;5114703;28;20406;-89
2022/08/22 07:45:01;;;;;;;2.80;0.60;;;29.90;56.90;;;;;;5096667;28;20930;-91
2022/08/22 07:47:44;;;;;;;1.93;0.90;;;30.30;52.80;;;;;;5114162;28;20405;-89
2022/08/22 07:50:15;;;;;;;1.23;0.47;;;30.90;64.40;;;;;;5114177;28;20510;-91
2022/08/22 07:52:44;;;;;;;1.60;0.60;;;30.40;43.40;;;;;;5114637;28;20406;-91
2022/08/22 07:55:24;;;;;;;1.77;0.57;;;30.50;35.40;;;;;;5114980;28;20437;-92
2022/08/22 07:57:56;;;;;;;1.27;0.40;;;30.10;31.10;;;;;;5096770;28;20417;-89
2022/08/22 08:00:22;;;;;;;1.30;0.50;;;29.90;31.70;;;;;;5114512;28;20401;-91
2022/08/22 08:02:57;;;;;;;1.63;0.30;;;30.10;27.60;;;;;;5095637;28;20425;-89
2022/08/22 08:05:26;;;;;;;2.70;0.93;;;30.70;27.80;;;;;;5114433;28;20495;-93
2022/08/22 08:07:54;;;;;;;2.27;0.40;;;31.20;34.20;;;;;;5096554;28;20772;-91
2022/08/22 08:10:33;;;;;;;1.40;0.60;;;30.40;30.00;;;;;;5114609;28;20465;-91
2022/08/22 08:13:03;;;;;;;3.10;0.97;;;30.30;19.60;;;;;;5114604;28;20437;-93
2022/08/22 08:15:33;;;;;;;2.37;0.80;;;30.60;23.40;;;;;;5096524;28;20417;-91
2022/08/22 08:18:04;;;;;;;1.47;0.70;;;30.50;19.40;;;;;;5095931;28;20418;-91
2022/08/22 08:20:33;;;;;;;1.00;0.30;;;30.40;17.10;;;;;;5114687;28;20397;-91
2022/08/22 08:23:03;;;;;;;1.33;0.50;;;30.50;30.70;;;;;;5096234;28;20421;-87
2022/08/22 08:25:31;;;;;;;4.10;0.70;;;30.50;17.30;;;;;;5113981;28;20414;-90
2022/08/22 08:28:40;;;;;;;2.40;0.40;;;31.50;18.10;;;;;;5113779;28;20416;-90
2022/08/22 08:30:55;;;;;;;1.77;0.50;;;31.80;13.40;;;;;;5102436;28;20810;-89
2022/08/22 08:33:25;;;;;;;2.03;0.50;;;31.70;6.60;;;;;;5113433;28;20412;-90
2022/08/22 08:36:22;;;;;;;2.50;0.50;;;31.50;5.50;;;;;;5113909;28;20412;-88
2022/08/22 08:38:54;;;;;;;1.90;0.43;;;31.50;7.40;;;;;;5095272;28;20969;-90
2022/08/22 08:41:38;;;;;;;2.60;0.90;;;31.10;1.00;;;;;;5095413;28;20414;-89
2022/08/22 08:44:16;;;;;;;4.53;0.50;;;31.30;5.50;;;;;;5113670;28;20421;-89
2022/08/22 08:47:04;;;;;;;1.90;0.57;;;31.70;5.70;;;;;;5113522;28;20771;-92
2022/08/22 08:49:54;;;;;;;1.63;0.57;;;31.10;3.30;;;;;;5113823;28;20414;-91
2022/08/22 08:52:28;;;;;;;2.67;0.77;;;31.80;2.60;;;;;;5113766;28;20410;-90
2022/08/22 08:55:01;;;;;;;3.80;0.53;;;32.20;11.50;;;;;;5113625;28;20409;-90
2022/08/22 08:57:41;;;;;;;1.23;0.60;;;32.30;1.40;;;;;;5113713;28;20466;-89
2022/08/22 09:00:13;;;;;;;1.20;0.50;;;32.80;3.70;;;;;;5113341;28;20405;-90
2022/08/22 09:03:09;;;;;;;2.00;0.60;;;33.00;1.00;;;;;;5113490;28;20410;-91
2022/08/22 09:05:56;;;;;;;2.40;0.50;;;32.90;1.00;;;;;;5113985;28;20420;-90
2022/08/22 09:08:47;;;;;;;2.33;0.40;;;31.90;1.00;;;;;;5114077;28;20776;-93
2022/08/22 09:11:31;;;;;;;1.53;0.50;;;31.60;1.00;;;;;;5113740;28;20548;-88
2022/08/22 09:13:56;;;;;;;2.10;0.60;;;31.90;1.00;;;;;;5113874;28;20394;-93
2022/08/22 09:16:43;;;;;;;1.10;0.47;;;31.00;1.00;;;;;;5114314;28;20402;-92
2022/08/22 09:19:14;;;;;;;2.50;0.50;;;31.20;1.00;;;;;;5099711;28;20168;-90
2022/08/22 09:22:26;;;;;;;1.70;0.47;;;32.10;1.00;;;;;;5117615;28;20413;-93
2022/08/22 09:25:21;;;;;;;2.83;0.90;;;32.90;1.00;;;;;;5117772;28;20404;-90
2022/08/22 09:28:18;;;;;;;1.47;0.50;;;33.10;1.00;;;;;;5117387;28;20413;-90
2022/08/22 09:31:20;;;;;;;0.90;0.47;;;33.00;1.00;;;;;;5117234;28;20473;-91
2022/08/22 09:34:07;;;;;;;1.43;1.03;;;33.10;1.00;;;;;;5098626;28;20401;-91
2022/08/22 09:36:43;;;;;;;1.53;0.73;;;32.80;1.00;;;;;;5099869;28;20416;-93
2022/08/22 09:39:30;;;;;;;2.20;0.50;;;33.40;1.00;;;;;;5117651;28;20791;-89
2022/08/22 09:42:16;;;;;;;3.30;0.47;;;33.60;1.00;;;;;;5117370;28;20433;-91
2022/08/22 09:45:17;;;;;;;3.00;0.53;;;32.90;1.00;;;;;;5099283;28;20437;-93
2022/08/22 09:48:05;;;;;;;1.77;0.40;;;33.50;1.00;;;;;;5116882;28;20850;-91
2022/08/22 09:50:46;;;;;;;1.73;0.50;;;32.90;1.00;;;;;;5061431;28;20425;-90
2022/08/22 09:53:39;;;;;;;2.90;0.93;;;32.10;1.00;;;;;;5117177;28;20909;-91
2022/08/22 09:56:22;;;;;;;2.20;0.50;;;31.50;1.00;;;;;;5099100;28;20406;-92
2022/08/22 09:59:16;;;;;;;1.57;0.60;;;30.70;1.00;;;;;;5117194;28;20421;-92
2022/08/22 10:01:55;;;;;;;2.20;0.37;;;29.00;1.00;;;;;;5098192;28;20555;-88
2022/08/22 10:04:44;;;;;;;2.00;0.30;;;30.90;1.00;;;;;;5098332;28;20420;-92
2022/08/22 10:07:31;;;;;;;1.57;0.40;;;32.80;1.00;;;;;;5098653;28;20469;-94
2022/08/22 10:10:34;;;;;;;1.43;0.50;;;33.50;1.00;;;;;;5098925;28;20462;-94
2022/08/22 10:12:59;;;;;;;2.67;0.60;;;31.30;1.00;;;;;;5098612;28;20531;-92
2022/08/22 10:16:11;;;;;;;2.00;0.30;;;29.30;1.00;;;;;;5098156;28;20514;-90
2022/08/22 10:19:00;;;;;;;1.50;0.73;;;31.60;1.00;;;;;;5033600;28;20534;-91
2022/08/22 10:21:40;;;;;;;1.27;0.43;;;33.00;1.00;;;;;;5116289;28;20506;-93
2022/08/22 10:24:31;;;;;;;1.10;0.40;;;33.60;1.00;;;;;;5097909;28;20478;-93
2022/08/22 10:27:02;;;;;;;2.37;0.50;;;31.70;1.00;;;;;;5098101;28;20418;-90
2022/08/22 10:29:40;;;;;;;2.93;0.83;;;30.00;1.00;;;;;;5097817;28;20817;-91
2022/08/22 10:32:24;;;;;;;1.53;0.30;;;28.70;1.00;;;;;;5097832;28;20828;-92
2022/08/22 10:34:55;;;;;;;2.20;0.40;;;28.20;1.00;;;;;;5097783;28;20410;-91
2022/08/22 10:37:50;;;;;;;2.00;0.60;;;27.80;1.00;;;;;;5097890;28;20425;-92
2022/08/22 10:40:33;;;;;;;3.03;0.83;;;27.40;1.00;;;;;;5097946;28;20495;-91
2022/08/22 10:43:09;;;;;;;3.33;0.80;;;27.50;1.00;;;;;;5111574;28;20424;-91
2022/08/22 10:45:43;;;;;;;1.00;0.50;;;30.20;1.00;;;;;;5097953;28;20409;-91
2022/08/22 10:48:12;;;;;;;0.77;0.40;;;28.70;1.00;;;;;;5097458;28;20455;-91
2022/08/22 10:50:59;;;;;;;1.90;0.67;;;28.40;1.00;;;;;;5115776;28;20421;-91
2022/08/22 10:53:50;;;;;;;1.43;0.50;;;28.10;1.00;;;;;;5115633;28;20406;-92
2022/08/22 10:56:33;;;;;;;3.13;0.63;;;27.50;1.00;;;;;;5097298;28;20421;-90
2022/08/22 10:59:18;;;;;;;1.17;0.67;;;27.10;1.00;;;;;;5097490;28;20416;-91
2022/08/22 11:01:58;;;;;;;1.77;0.57;;;26.80;1.00;;;;;;5097066;28;20568;-90
2022/08/22 11:04:38;;;;;;;1.40;0.50;;;26.70;1.00;;;;;;5097963;28;20444;-92
2022/08/22 11:07:36;;;;;;;1.20;0.30;;;26.80;1.00;;;;;;5097024;28;20468;-91
2022/08/22 11:10:08;;;;;;;1.50;0.50;;;26.60;1.00;;;;;;5097174;28;20414;-91
2022/08/22 11:12:43;;;;;;;1.23;0.20;;;26.80;1.00;;;;;;5097306;28;20416;-90
2022/08/22 11:15:17;;;;;;;0.80;0.50;;;26.90;1.00;;;;;;5096973;28;20409;-91
2022/08/22 11:18:01;;;;;;;1.37;0.40;;;28.00;1.00;;;;;;5096691;28;20421;-91
2022/08/22 11:20:49;;;;;;;1.20;0.50;;;28.30;1.00;;;;;;5097170;28;20457;-92
2022/08/22 11:23:36;;;;;;;1.73;0.60;;;;;;;;;;5097019;28;20486;-90
2022/08/22 11:26:01;;;;;;;1.80;0.40;;;30.50;1.00;;;;;;5096466;28;20413;-92
2022/08/22 11:28:58;;;;;;;1.10;0.30;;;30.80;1.00;;;;;;5096652;28;20417;-92
2022/08/22 11:31:58;;;;;;;2.60;0.60;;;31.70;1.00;;;;;;5095865;28;20333;-90
2022/08/22 11:34:51;;;;;;;1.90;0.40;;;32.80;1.00;;;;;;5114739;28;20753;-93
2022/08/22 11:37:21;;;;;;;0.60;0.33;;;32.10;1.00;;;;;;5096637;28;20417;-92
2022/08/22 11:40:22;;;;;;;1.20;0.37;;;31.10;1.00;;;;;;5095949;28;20505;-90
2022/08/22 11:43:12;;;;;;;0.70;0.30;;;30.20;1.00;;;;;;5081521;28;20778;-94
2022/08/22 11:45:50;;;;;;;0.83;0.30;;;29.20;1.00;;;;;;5102585;28;20477;-91
2022/08/22 11:48:22;;;;;;;1.20;0.63;;;28.40;1.00;;;;;;5110093;28;20421;-91
2022/08/22 11:51:01;;;;;;;1.43;0.70;;;28.60;1.00;;;;;;5105112;28;20425;-92
2022/08/22 11:53:33;;;;;;;1.43;0.43;;;29.90;1.00;;;;;;5110304;28;20420;-94
2022/08/22 11:56:09;;;;;;;0.80;0.33;;;30.50;1.00;;;;;;5107184;28;20452;-93
2022/08/22 11:58:54;;;;;;;2.73;0.60;;;31.00;1.00;;;;;;5099024;28;20448;-92
2022/08/22 12:01:43;;;;;;;1.23;0.60;;;31.10;1.00;;;;;;5096382;28;20511;-92
2022/08/22 12:04:37;;;;;;;1.50;0.50;;;31.30;1.00;;;;;;5096331;28;20410;-90
2022/08/22 12:07:06;;;;;;;4.43;0.50;;;30.60;1.00;;;;;;5092613;28;20398;-93
2022/08/22 12:09:44;;;;;;;1.07;0.20;;;29.20;1.00;;;;;;5096606;28;20414;-92
2022/08/22 12:12:26;;;;;;;1.37;0.40;;;28.40;1.00;;;;;;5096944;28;20496;-92
2022/08/22 12:15:07;;;;;;;1.37;0.40;;;28.20;1.00;;;;;;5096485;28;20817;-93
2022/08/22 12:17:49;;;;;;;1.27;0.40;;;28.20;1.00;;;;;;5096352;28;20442;-92
2022/08/22 12:20:36;;;;;;;1.30;0.50;;;28.40;1.00;;;;;;5096376;28;21006;-92
2022/08/22 12:23:38;;;;;;;1.50;0.40;;;29.70;1.00;;;;;;5096188;28;20459;-92
2022/08/22 12:26:32;;;;;;;1.70;0.27;;;29.00;1.00;;;;;;5114114;28;20905;-91
2022/08/22 12:29:25;;;;;;;2.70;0.30;;;27.90;1.00;;;;;;5096127;28;20413;-92
2022/08/22 12:32:32;;;;;;;2.40;0.50;;;28.70;1.00;;;;;;5095891;28;20449;-92
2022/08/22 12:35:21;;;;;;;1.43;0.57;;;30.30;1.00;;;;;;5096022;28;20414;-94
2022/08/22 12:37:55;;;;;;;1.47;0.43;;;30.90;1.00;;;;;;5095516;28;20547;-92
2022/08/22 12:40:58;;;;;;;0.50;0.20;;;31.10;1.00;;;;;;5095959;28;20467;-93
2022/08/22 12:43:55;;;;;;;1.30;0.33;;;31.20;1.00;;;;;;5059851;28;20893;-93
2022/08/22 12:46:31;;;;;;;0.70;0.63;;;32.00;1.00;;;;;;5095997;28;20497;-93
2022/08/22 12:49:28;;;;;;;1.90;0.60;;;32.30;1.00;;;;;;5095903;28;20432;-92
2022/08/22 12:52:04;;;;;;;2.13;0.57;;;30.70;1.00;;;;;;5097512;28;20519;-93
2022/08/22 12:54:42;;;;;;;0.80;0.40;;;29.40;1.00;;;;;;5118298;28;20417;-93
2022/08/22 12:57:33;;;;;;;1.67;0.50;;;28.80;1.00;;;;;;5100127;28;20405;-93
2022/08/22 13:00:16;;;;;;;2.17;0.43;;;28.70;1.00;;;;;;5095123;28;20960;-93
2022/08/22 13:02:44;;;;;;;1.10;0.50;;;28.00;1.00;;;;;;5099799;28;20413;-92
2022/08/22 13:05:25;;;;;;;3.23;0.70;;;27.90;1.00;;;;;;5099947;28;20914;-92
2022/08/22 13:07:57;;;;;;;2.60;0.63;;;29.00;1.00;;;;;;5098065;28;20413;-92
2022/08/22 13:10:39;;;;;;;1.17;0.30;;;30.10;1.00;;;;;;5117584;28;20413;-91
2022/08/22 13:13:07;;;;;;;4.27;1.20;;;30.50;1.00;;;;;;5099423;28;20421;-92
2022/08/22 13:15:53;;;;;;;1.07;0.30;;;30.60;1.00;;;;;;5099181;28;20419;-92
2022/08/22 13:18:24;;;;;;;1.17;0.40;;;29.80;1.00;;;;;;5099104;28;20414;-92
2022/08/22 13:20:52;;;;;;;2.20;0.53;;;29.20;1.00;;;;;;5099363;28;20469;-92
2022/08/22 13:23:26;;;;;;;1.30;0.53;;;28.90;1.00;;;;;;5117284;28;20986;-91
2022/08/22 13:26:16;;;;;;;1.00;0.50;;;28.70;1.00;;;;;;5098762;28;20504;-91
2022/08/22 13:29:10;;;;;;;1.50;0.30;;;29.10;1.00;;;;;;5086138;28;20417;-91
2022/08/22 13:31:39;;;;;;;0.80;0.30;;;29.30;1.00;;;;;;5097576;28;20465;-93
2022/08/22 13:34:33;;;;;;;5.27;0.90;;;29.30;1.00;;;;;;5098535;28;20405;-92
2022/08/22 13:37:03;;;;;;;1.50;0.57;;;29.20;1.00;;;;;;5116236;28;20409;-94
2022/08/22 13:39:38;;;;;;;1.13;0.50;;;29.50;1.00;;;;;;5117960;28;20408;-94
2022/08/22 13:42:05;;;;;;;1.30;0.57;;;29.20;1.00;;;;;;5099132;28;20683;-93
2022/08/22 13:44:38;;;;;;;1.67;0.50;;;28.80;1.00;;;;;;5098987;28;20921;-93
2022/08/22 13:47:08;;;;;;;1.47;0.30;;;29.00;1.00;;;;;;5116702;28;20475;-93
2022/08/22 13:49:40;;;;;;;1.60;0.40;;;29.10;1.00;;;;;;5098641;28;20474;-92
2022/08/22 13:52:08;;;;;;;1.30;0.47;;;29.40;1.00;;;;;;5098609;28;20429;-94
2022/08/22 13:55:06;;;;;;;0.83;0.20;;;29.40;1.00;;;;;;5116515;28;20416;-95
2022/08/22 13:57:49;;;;;;;3.20;0.33;;;29.30;1.00;;;;;;5021394;28;20528;-93
2022/08/22 14:00:17;;;;;;;3.60;0.57;;;28.70;1.00;;;;;;5073641;27;20564;-94
2022/08/22 14:03:14;;;;;;;0.83;0.40;;;28.50;1.00;;;;;;5117646;28;20433;-94
2022/08/22 14:05:45;;;;;;;1.53;0.50;;;28.30;1.00;;;;;;5118053;28;20506;-93